sensor_id;sensor_type;location;lat;lon;timestamp;P1;durP1;ratioP1;P2;durP2;ratioP2
24090;SDS011;12272;52.426;17.100;2023-05-08T00:00:35;21.73;;;16.07;;
24090;SDS011;12272;52.426;17.100;2023-05-08T00:05:39;20.30;;;14.50;;
24090;SDS011;12272;52.426;17.100;2023-05-08T00:10:43;19.80;;;14.23;;
24090;SDS011;12272;52.426;17.100;2023-05-08T00:15:46;19.50;;;15.10;;
24090;SDS011;12272;52.426;17.100;2023-05-08T00:20:48;21.97;;;15.03;;
24090;SDS011;12272;52.426;17.100;2023-05-08T00:25:51;19.63;;;15.10;;
24090;SDS011;12272;52.426;17.100;2023-05-08T00:30:53;20.87;;;14.13;;
24090;SDS011;12272;52.426;17.100;2023-05-08T00:36:02;18.20;;;15.47;;
24090;SDS011;12272;52.426;17.100;2023-05-08T00:41:06;21.63;;;16.17;;
24090;SDS011;12272;52.426;17.100;2023-05-08T00:46:08;19.17;;;14.93;;
24090;SDS011;12272;52.426;17.100;2023-05-08T00:51:12;20.17;;;14.50;;
24090;SDS011;12272;52.426;17.100;2023-05-08T00:56:15;17.63;;;15.23;;
24090;SDS011;12272;52.426;17.100;2023-05-08T01:01:21;21.77;;;16.67;;
24090;SDS011;12272;52.426;17.100;2023-05-08T01:06:24;18.57;;;14.87;;
24090;SDS011;12272;52.426;17.100;2023-05-08T01:12:33;20.17;;;16.67;;
24090;SDS011;12272;52.426;17.100;2023-05-08T01:22:43;21.63;;;16.77;;
24090;SDS011;12272;52.426;17.100;2023-05-08T01:44:15;23.67;;;18.00;;
24090;SDS011;12272;52.426;17.100;2023-05-08T01:54:27;22.43;;;18.47;;
24090;SDS011;12272;52.426;17.100;2023-05-08T01:59:34;22.83;;;17.67;;
24090;SDS011;12272;52.426;17.100;2023-05-08T02:04:39;25.53;;;17.37;;
24090;SDS011;12272;52.426;17.100;2023-05-08T02:09:44;21.97;;;17.17;;
24090;SDS011;12272;52.426;17.100;2023-05-08T02:14:48;22.10;;;17.93;;
24090;SDS011;12272;52.426;17.100;2023-05-08T02:19:53;22.83;;;18.30;;
24090;SDS011;12272;52.426;17.100;2023-05-08T02:24:59;25.77;;;17.70;;
24090;SDS011;12272;52.426;17.100;2023-05-08T02:30:02;21.53;;;17.47;;
24090;SDS011;12272;52.426;17.100;2023-05-08T02:35:06;23.83;;;17.83;;
24090;SDS011;12272;52.426;17.100;2023-05-08T02:40:10;22.53;;;18.30;;
24090;SDS011;12272;52.426;17.100;2023-05-08T02:45:15;22.70;;;18.47;;
24090;SDS011;12272;52.426;17.100;2023-05-08T02:50:21;23.10;;;18.90;;
24090;SDS011;12272;52.426;17.100;2023-05-08T02:55:45;21.90;;;17.00;;
24090;SDS011;12272;52.426;17.100;2023-05-08T03:00:52;24.47;;;18.63;;
24090;SDS011;12272;52.426;17.100;2023-05-08T03:06:12;24.17;;;16.53;;
24090;SDS011;12272;52.426;17.100;2023-05-08T03:11:18;26.80;;;17.33;;
24090;SDS011;12272;52.426;17.100;2023-05-08T03:16:25;19.77;;;16.20;;
24090;SDS011;12272;52.426;17.100;2023-05-08T03:21:32;21.97;;;17.67;;
24090;SDS011;12272;52.426;17.100;2023-05-08T03:26:38;22.60;;;16.80;;
24090;SDS011;12272;52.426;17.100;2023-05-08T03:31:41;22.23;;;17.40;;
24090;SDS011;12272;52.426;17.100;2023-05-08T03:36:44;24.27;;;18.67;;
24090;SDS011;12272;52.426;17.100;2023-05-08T03:41:48;25.43;;;19.53;;
24090;SDS011;12272;52.426;17.100;2023-05-08T03:46:51;27.03;;;19.50;;
24090;SDS011;12272;52.426;17.100;2023-05-08T03:51:57;27.53;;;18.33;;
24090;SDS011;12272;52.426;17.100;2023-05-08T03:57:00;28.93;;;19.43;;
24090;SDS011;12272;52.426;17.100;2023-05-08T04:07:27;25.00;;;17.50;;
24090;SDS011;12272;52.426;17.100;2023-05-08T04:18:36;24.53;;;18.77;;
24090;SDS011;12272;52.426;17.100;2023-05-08T04:23:47;24.63;;;18.30;;
24090;SDS011;12272;52.426;17.100;2023-05-08T04:28:52;29.93;;;21.37;;
24090;SDS011;12272;52.426;17.100;2023-05-08T04:33:55;31.07;;;22.97;;
24090;SDS011;12272;52.426;17.100;2023-05-08T04:38:59;29.67;;;22.77;;
24090;SDS011;12272;52.426;17.100;2023-05-08T04:44:02;36.77;;;28.03;;
24090;SDS011;12272;52.426;17.100;2023-05-08T04:49:06;36.47;;;27.27;;
24090;SDS011;12272;52.426;17.100;2023-05-08T04:54:09;16.93;;;11.40;;
24090;SDS011;12272;52.426;17.100;2023-05-08T04:59:12;19.07;;;10.83;;
24090;SDS011;12272;52.426;17.100;2023-05-08T05:04:17;15.10;;;10.63;;
24090;SDS011;12272;52.426;17.100;2023-05-08T05:09:20;17.03;;;11.53;;
24090;SDS011;12272;52.426;17.100;2023-05-08T05:14:23;22.70;;;12.13;;
24090;SDS011;12272;52.426;17.100;2023-05-08T05:19:25;16.57;;;12.60;;
24090;SDS011;12272;52.426;17.100;2023-05-08T05:24:28;16.47;;;11.27;;
24090;SDS011;12272;52.426;17.100;2023-05-08T05:29:32;11.07;;;7.53;;
24090;SDS011;12272;52.426;17.100;2023-05-08T05:34:34;11.73;;;7.73;;
24090;SDS011;12272;52.426;17.100;2023-05-08T05:39:37;9.97;;;7.40;;
24090;SDS011;12272;52.426;17.100;2023-05-08T05:44:40;9.90;;;6.80;;
24090;SDS011;12272;52.426;17.100;2023-05-08T05:49:43;21.50;;;7.83;;
24090;SDS011;12272;52.426;17.100;2023-05-08T05:54:49;9.57;;;6.93;;
24090;SDS011;12272;52.426;17.100;2023-05-08T05:59:52;10.30;;;7.40;;
24090;SDS011;12272;52.426;17.100;2023-05-08T06:04:57;8.67;;;5.87;;
24090;SDS011;12272;52.426;17.100;2023-05-08T06:10:00;5.17;;;4.50;;
24090;SDS011;12272;52.426;17.100;2023-05-08T06:15:03;6.13;;;5.43;;
24090;SDS011;12272;52.426;17.100;2023-05-08T06:20:06;4.97;;;3.83;;
24090;SDS011;12272;52.426;17.100;2023-05-08T06:25:09;7.03;;;4.60;;
24090;SDS011;12272;52.426;17.100;2023-05-08T06:30:12;7.67;;;5.67;;
24090;SDS011;12272;52.426;17.100;2023-05-08T06:35:15;7.50;;;4.07;;
24090;SDS011;12272;52.426;17.100;2023-05-08T06:40:19;7.33;;;4.17;;
24090;SDS011;12272;52.426;17.100;2023-05-08T06:45:22;6.33;;;4.50;;
24090;SDS011;12272;52.426;17.100;2023-05-08T06:50:24;3.93;;;2.80;;
24090;SDS011;12272;52.426;17.100;2023-05-08T06:55:27;4.67;;;4.00;;
24090;SDS011;12272;52.426;17.100;2023-05-08T07:00:29;5.03;;;3.53;;
24090;SDS011;12272;52.426;17.100;2023-05-08T07:05:33;11.63;;;5.07;;
24090;SDS011;12272;52.426;17.100;2023-05-08T07:10:35;4.07;;;3.47;;
24090;SDS011;12272;52.426;17.100;2023-05-08T07:15:38;5.13;;;3.47;;
24090;SDS011;12272;52.426;17.100;2023-05-08T07:20:40;5.77;;;3.97;;
24090;SDS011;12272;52.426;17.100;2023-05-08T07:25:43;3.47;;;3.03;;
24090;SDS011;12272;52.426;17.100;2023-05-08T07:30:45;3.43;;;3.13;;
24090;SDS011;12272;52.426;17.100;2023-05-08T07:35:48;6.27;;;3.87;;
24090;SDS011;12272;52.426;17.100;2023-05-08T07:40:50;5.60;;;3.77;;
24090;SDS011;12272;52.426;17.100;2023-05-08T07:45:58;3.90;;;3.50;;
24090;SDS011;12272;52.426;17.100;2023-05-08T07:51:00;4.20;;;3.40;;
24090;SDS011;12272;52.426;17.100;2023-05-08T07:56:03;4.03;;;2.80;;
24090;SDS011;12272;52.426;17.100;2023-05-08T08:01:06;4.77;;;3.57;;
24090;SDS011;12272;52.426;17.100;2023-05-08T08:06:08;4.13;;;3.30;;
24090;SDS011;12272;52.426;17.100;2023-05-08T08:11:11;11.33;;;3.13;;
24090;SDS011;12272;52.426;17.100;2023-05-08T08:16:14;3.43;;;3.13;;
24090;SDS011;12272;52.426;17.100;2023-05-08T08:21:16;4.03;;;2.97;;
24090;SDS011;12272;52.426;17.100;2023-05-08T08:26:19;3.63;;;3.00;;
24090;SDS011;12272;52.426;17.100;2023-05-08T08:31:21;4.13;;;3.73;;
24090;SDS011;12272;52.426;17.100;2023-05-08T08:36:24;5.43;;;3.77;;
24090;SDS011;12272;52.426;17.100;2023-05-08T08:41:27;3.77;;;2.83;;
24090;SDS011;12272;52.426;17.100;2023-05-08T08:46:30;4.43;;;4.03;;
24090;SDS011;12272;52.426;17.100;2023-05-08T08:51:44;5.13;;;3.63;;
24090;SDS011;12272;52.426;17.100;2023-05-08T08:56:52;3.13;;;2.83;;
24090;SDS011;12272;52.426;17.100;2023-05-08T09:01:57;6.37;;;4.13;;
24090;SDS011;12272;52.426;17.100;2023-05-08T09:07:06;8.83;;;4.23;;
24090;SDS011;12272;52.426;17.100;2023-05-08T09:12:11;4.63;;;3.73;;
24090;SDS011;12272;52.426;17.100;2023-05-08T09:17:15;3.60;;;3.30;;
24090;SDS011;12272;52.426;17.100;2023-05-08T09:22:17;3.50;;;2.87;;
24090;SDS011;12272;52.426;17.100;2023-05-08T09:27:22;5.80;;;2.93;;
24090;SDS011;12272;52.426;17.100;2023-05-08T09:32:27;5.90;;;3.33;;
24090;SDS011;12272;52.426;17.100;2023-05-08T09:37:30;3.17;;;2.53;;
24090;SDS011;12272;52.426;17.100;2023-05-08T09:42:39;4.10;;;3.33;;
24090;SDS011;12272;52.426;17.100;2023-05-08T09:47:46;3.60;;;2.80;;
24090;SDS011;12272;52.426;17.100;2023-05-08T09:52:49;5.47;;;3.83;;
24090;SDS011;12272;52.426;17.100;2023-05-08T10:02:56;3.67;;;3.33;;
24090;SDS011;12272;52.426;17.100;2023-05-08T10:08:21;4.27;;;3.20;;
24090;SDS011;12272;52.426;17.100;2023-05-08T10:13:24;5.00;;;3.83;;
24090;SDS011;12272;52.426;17.100;2023-05-08T10:18:27;3.00;;;2.70;;
24090;SDS011;12272;52.426;17.100;2023-05-08T10:23:37;6.63;;;4.33;;
24090;SDS011;12272;52.426;17.100;2023-05-08T10:28:45;6.60;;;4.63;;
24090;SDS011;12272;52.426;17.100;2023-05-08T10:34:11;4.17;;;2.73;;
24090;SDS011;12272;52.426;17.100;2023-05-08T10:39:18;2.87;;;2.30;;
24090;SDS011;12272;52.426;17.100;2023-05-08T10:44:21;5.83;;;4.00;;
24090;SDS011;12272;52.426;17.100;2023-05-08T10:59:55;4.57;;;3.63;;
24090;SDS011;12272;52.426;17.100;2023-05-08T11:05:15;6.33;;;3.10;;
24090;SDS011;12272;52.426;17.100;2023-05-08T11:10:19;2.57;;;2.27;;
24090;SDS011;12272;52.426;17.100;2023-05-08T11:15:38;3.30;;;2.50;;
24090;SDS011;12272;52.426;17.100;2023-05-08T11:20:54;4.33;;;3.27;;
24090;SDS011;12272;52.426;17.100;2023-05-08T11:26:02;5.23;;;3.33;;
24090;SDS011;12272;52.426;17.100;2023-05-08T11:31:06;3.00;;;2.50;;
24090;SDS011;12272;52.426;17.100;2023-05-08T11:36:16;4.43;;;3.37;;
24090;SDS011;12272;52.426;17.100;2023-05-08T11:41:22;4.43;;;3.70;;
24090;SDS011;12272;52.426;17.100;2023-05-08T11:46:31;7.93;;;3.80;;
24090;SDS011;12272;52.426;17.100;2023-05-08T11:51:46;4.00;;;2.80;;
24090;SDS011;12272;52.426;17.100;2023-05-08T11:56:55;3.50;;;3.13;;
24090;SDS011;12272;52.426;17.100;2023-05-08T12:01:58;8.17;;;4.17;;
24090;SDS011;12272;52.426;17.100;2023-05-08T12:07:10;4.03;;;3.10;;
24090;SDS011;12272;52.426;17.100;2023-05-08T12:12:12;3.00;;;2.70;;
24090;SDS011;12272;52.426;17.100;2023-05-08T12:17:18;2.33;;;1.90;;
24090;SDS011;12272;52.426;17.100;2023-05-08T12:22:21;6.63;;;3.07;;
24090;SDS011;12272;52.426;17.100;2023-05-08T12:27:23;5.37;;;4.07;;
24090;SDS011;12272;52.426;17.100;2023-05-08T12:32:26;6.57;;;2.70;;
24090;SDS011;12272;52.426;17.100;2023-05-08T12:37:30;6.60;;;3.37;;
24090;SDS011;12272;52.426;17.100;2023-05-08T12:42:42;11.10;;;3.60;;
24090;SDS011;12272;52.426;17.100;2023-05-08T12:47:47;3.20;;;2.90;;
24090;SDS011;12272;52.426;17.100;2023-05-08T12:52:52;9.77;;;4.17;;
24090;SDS011;12272;52.426;17.100;2023-05-08T12:58:12;3.47;;;2.93;;
24090;SDS011;12272;52.426;17.100;2023-05-08T13:03:23;4.30;;;3.40;;
24090;SDS011;12272;52.426;17.100;2023-05-08T13:08:30;4.97;;;2.63;;
24090;SDS011;12272;52.426;17.100;2023-05-08T13:13:34;4.60;;;3.63;;
24090;SDS011;12272;52.426;17.100;2023-05-08T13:18:37;3.93;;;3.30;;
24090;SDS011;12272;52.426;17.100;2023-05-08T13:23:40;2.87;;;2.33;;
24090;SDS011;12272;52.426;17.100;2023-05-08T13:28:44;3.93;;;2.43;;
24090;SDS011;12272;52.426;17.100;2023-05-08T13:33:46;4.83;;;2.33;;
24090;SDS011;12272;52.426;17.100;2023-05-08T13:38:49;5.40;;;3.63;;
24090;SDS011;12272;52.426;17.100;2023-05-08T13:44:09;2.73;;;2.47;;
24090;SDS011;12272;52.426;17.100;2023-05-08T13:49:11;7.83;;;3.57;;
24090;SDS011;12272;52.426;17.100;2023-05-08T13:54:14;6.43;;;2.50;;
24090;SDS011;12272;52.426;17.100;2023-05-08T13:59:16;3.43;;;2.87;;
24090;SDS011;12272;52.426;17.100;2023-05-08T14:04:19;3.30;;;3.00;;
24090;SDS011;12272;52.426;17.100;2023-05-08T14:09:21;2.50;;;2.30;;
24090;SDS011;12272;52.426;17.100;2023-05-08T14:14:24;3.57;;;2.87;;
24090;SDS011;12272;52.426;17.100;2023-05-08T14:19:26;4.37;;;2.33;;
24090;SDS011;12272;52.426;17.100;2023-05-08T14:24:29;2.30;;;2.10;;
24090;SDS011;12272;52.426;17.100;2023-05-08T14:29:32;3.20;;;2.50;;
24090;SDS011;12272;52.426;17.100;2023-05-08T14:34:35;4.63;;;2.47;;
24090;SDS011;12272;52.426;17.100;2023-05-08T14:39:37;8.23;;;3.70;;
24090;SDS011;12272;52.426;17.100;2023-05-08T14:44:40;2.90;;;2.30;;
24090;SDS011;12272;52.426;17.100;2023-05-08T14:49:43;3.93;;;2.90;;
24090;SDS011;12272;52.426;17.100;2023-05-08T14:54:45;6.30;;;3.90;;
24090;SDS011;12272;52.426;17.100;2023-05-08T14:59:54;9.83;;;3.40;;
24090;SDS011;12272;52.426;17.100;2023-05-08T15:04:58;3.97;;;3.57;;
24090;SDS011;12272;52.426;17.100;2023-05-08T15:10:00;3.93;;;2.30;;
24090;SDS011;12272;52.426;17.100;2023-05-08T15:15:04;2.17;;;1.97;;
24090;SDS011;12272;52.426;17.100;2023-05-08T15:20:07;4.37;;;2.90;;
24090;SDS011;12272;52.426;17.100;2023-05-08T15:25:13;3.93;;;2.70;;
24090;SDS011;12272;52.426;17.100;2023-05-08T15:35:57;2.43;;;2.20;;
24090;SDS011;12272;52.426;17.100;2023-05-08T15:40:59;4.43;;;2.87;;
24090;SDS011;12272;52.426;17.100;2023-05-08T15:46:02;3.20;;;2.70;;
24090;SDS011;12272;52.426;17.100;2023-05-08T15:51:04;2.20;;;1.93;;
24090;SDS011;12272;52.426;17.100;2023-05-08T15:56:07;4.33;;;2.40;;
24090;SDS011;12272;52.426;17.100;2023-05-08T16:01:10;3.50;;;2.70;;
24090;SDS011;12272;52.426;17.100;2023-05-08T16:06:12;6.27;;;2.83;;
24090;SDS011;12272;52.426;17.100;2023-05-08T16:11:15;3.40;;;1.83;;
24090;SDS011;12272;52.426;17.100;2023-05-08T16:16:17;4.00;;;3.60;;
24090;SDS011;12272;52.426;17.100;2023-05-08T16:21:20;3.17;;;2.87;;
24090;SDS011;12272;52.426;17.100;2023-05-08T16:26:23;4.47;;;3.10;;
24090;SDS011;12272;52.426;17.100;2023-05-08T16:31:27;3.17;;;2.73;;
24090;SDS011;12272;52.426;17.100;2023-05-08T16:36:30;4.10;;;3.07;;
24090;SDS011;12272;52.426;17.100;2023-05-08T16:41:32;5.40;;;2.43;;
24090;SDS011;12272;52.426;17.100;2023-05-08T16:46:35;3.27;;;2.83;;
24090;SDS011;12272;52.426;17.100;2023-05-08T16:51:37;4.07;;;2.40;;
24090;SDS011;12272;52.426;17.100;2023-05-08T16:56:40;4.17;;;3.10;;
24090;SDS011;12272;52.426;17.100;2023-05-08T17:01:42;3.37;;;3.07;;
24090;SDS011;12272;52.426;17.100;2023-05-08T17:06:45;2.70;;;2.47;;
24090;SDS011;12272;52.426;17.100;2023-05-08T17:11:48;4.67;;;2.90;;
24090;SDS011;12272;52.426;17.100;2023-05-08T17:16:50;6.83;;;3.47;;
24090;SDS011;12272;52.426;17.100;2023-05-08T17:21:52;3.90;;;3.00;;
24090;SDS011;12272;52.426;17.100;2023-05-08T17:26:55;4.37;;;2.77;;
24090;SDS011;12272;52.426;17.100;2023-05-08T17:31:57;3.73;;;3.33;;
24090;SDS011;12272;52.426;17.100;2023-05-08T17:37:00;6.30;;;2.97;;
24090;SDS011;12272;52.426;17.100;2023-05-08T17:42:02;4.33;;;3.67;;
24090;SDS011;12272;52.426;17.100;2023-05-08T17:47:05;9.67;;;3.67;;
24090;SDS011;12272;52.426;17.100;2023-05-08T17:52:07;6.20;;;3.60;;
24090;SDS011;12272;52.426;17.100;2023-05-08T17:57:10;3.63;;;3.33;;
24090;SDS011;12272;52.426;17.100;2023-05-08T18:02:13;7.23;;;3.37;;
24090;SDS011;12272;52.426;17.100;2023-05-08T18:07:15;4.03;;;2.77;;
24090;SDS011;12272;52.426;17.100;2023-05-08T18:12:18;4.67;;;4.20;;
24090;SDS011;12272;52.426;17.100;2023-05-08T18:17:21;5.10;;;3.97;;
24090;SDS011;12272;52.426;17.100;2023-05-08T18:22:24;3.37;;;3.07;;
24090;SDS011;12272;52.426;17.100;2023-05-08T18:27:27;4.00;;;3.60;;
24090;SDS011;12272;52.426;17.100;2023-05-08T18:32:29;5.90;;;3.83;;
24090;SDS011;12272;52.426;17.100;2023-05-08T18:37:32;5.43;;;3.83;;
24090;SDS011;12272;52.426;17.100;2023-05-08T18:42:35;6.57;;;3.47;;
24090;SDS011;12272;52.426;17.100;2023-05-08T18:47:38;5.77;;;4.30;;
24090;SDS011;12272;52.426;17.100;2023-05-08T18:52:40;4.07;;;3.37;;
24090;SDS011;12272;52.426;17.100;2023-05-08T18:57:43;4.57;;;4.03;;
24090;SDS011;12272;52.426;17.100;2023-05-08T19:02:45;3.83;;;3.47;;
24090;SDS011;12272;52.426;17.100;2023-05-08T19:07:48;4.20;;;3.77;;
24090;SDS011;12272;52.426;17.100;2023-05-08T19:12:50;3.63;;;3.27;;
24090;SDS011;12272;52.426;17.100;2023-05-08T19:17:53;6.20;;;3.60;;
24090;SDS011;12272;52.426;17.100;2023-05-08T19:22:56;6.03;;;4.73;;
24090;SDS011;12272;52.426;17.100;2023-05-08T19:27:58;6.73;;;5.50;;
24090;SDS011;12272;52.426;17.100;2023-05-08T19:33:01;7.93;;;5.93;;
24090;SDS011;12272;52.426;17.100;2023-05-08T19:38:03;11.83;;;8.70;;
24090;SDS011;12272;52.426;17.100;2023-05-08T19:43:06;16.00;;;10.97;;
24090;SDS011;12272;52.426;17.100;2023-05-08T19:48:08;14.57;;;9.83;;
24090;SDS011;12272;52.426;17.100;2023-05-08T19:53:18;19.37;;;12.07;;
24090;SDS011;12272;52.426;17.100;2023-05-08T19:58:21;16.23;;;10.33;;
24090;SDS011;12272;52.426;17.100;2023-05-08T20:03:24;17.20;;;10.87;;
24090;SDS011;12272;52.426;17.100;2023-05-08T20:08:27;44.97;;;17.53;;
24090;SDS011;12272;52.426;17.100;2023-05-08T20:13:30;32.03;;;14.77;;
24090;SDS011;12272;52.426;17.100;2023-05-08T20:18:32;17.10;;;10.50;;
24090;SDS011;12272;52.426;17.100;2023-05-08T20:23:36;19.80;;;11.43;;
24090;SDS011;12272;52.426;17.100;2023-05-08T20:28:40;19.63;;;12.03;;
24090;SDS011;12272;52.426;17.100;2023-05-08T20:33:43;15.80;;;10.57;;
24090;SDS011;12272;52.426;17.100;2023-05-08T20:38:45;17.90;;;12.10;;
24090;SDS011;12272;52.426;17.100;2023-05-08T20:43:48;23.67;;;13.40;;
24090;SDS011;12272;52.426;17.100;2023-05-08T20:48:50;22.07;;;14.10;;
24090;SDS011;12272;52.426;17.100;2023-05-08T20:53:53;25.03;;;13.90;;
24090;SDS011;12272;52.426;17.100;2023-05-08T20:58:55;23.63;;;14.77;;
24090;SDS011;12272;52.426;17.100;2023-05-08T21:03:58;22.07;;;14.67;;
24090;SDS011;12272;52.426;17.100;2023-05-08T21:09:00;25.63;;;13.43;;
24090;SDS011;12272;52.426;17.100;2023-05-08T21:14:06;19.00;;;12.93;;
24090;SDS011;12272;52.426;17.100;2023-05-08T21:19:09;9.97;;;6.97;;
24090;SDS011;12272;52.426;17.100;2023-05-08T21:24:14;16.07;;;9.37;;
24090;SDS011;12272;52.426;17.100;2023-05-08T21:29:17;16.33;;;10.13;;
24090;SDS011;12272;52.426;17.100;2023-05-08T21:34:20;18.37;;;10.53;;
24090;SDS011;12272;52.426;17.100;2023-05-08T21:39:22;10.77;;;7.40;;
24090;SDS011;12272;52.426;17.100;2023-05-08T21:44:25;15.63;;;9.73;;
24090;SDS011;12272;52.426;17.100;2023-05-08T21:49:27;14.40;;;10.70;;
24090;SDS011;12272;52.426;17.100;2023-05-08T21:54:30;18.57;;;12.23;;
24090;SDS011;12272;52.426;17.100;2023-05-08T21:59:32;22.30;;;13.47;;
24090;SDS011;12272;52.426;17.100;2023-05-08T22:04:35;25.60;;;14.57;;
24090;SDS011;12272;52.426;17.100;2023-05-08T22:09:37;28.83;;;17.33;;
24090;SDS011;12272;52.426;17.100;2023-05-08T22:14:40;40.03;;;20.80;;
24090;SDS011;12272;52.426;17.100;2023-05-08T22:19:42;39.00;;;21.43;;
24090;SDS011;12272;52.426;17.100;2023-05-08T22:24:45;40.87;;;22.87;;
24090;SDS011;12272;52.426;17.100;2023-05-08T22:29:48;34.07;;;20.33;;
24090;SDS011;12272;52.426;17.100;2023-05-08T22:34:50;35.20;;;19.93;;
24090;SDS011;12272;52.426;17.100;2023-05-08T22:39:53;25.57;;;18.93;;
24090;SDS011;12272;52.426;17.100;2023-05-08T22:44:55;31.00;;;19.27;;
24090;SDS011;12272;52.426;17.100;2023-05-08T22:49:58;33.33;;;20.40;;
24090;SDS011;12272;52.426;17.100;2023-05-08T22:55:00;27.57;;;18.20;;
24090;SDS011;12272;52.426;17.100;2023-05-08T23:00:04;22.73;;;15.43;;
24090;SDS011;12272;52.426;17.100;2023-05-08T23:05:08;20.40;;;12.87;;
24090;SDS011;12272;52.426;17.100;2023-05-08T23:10:11;15.03;;;11.57;;
24090;SDS011;12272;52.426;17.100;2023-05-08T23:15:15;13.80;;;11.97;;
24090;SDS011;12272;52.426;17.100;2023-05-08T23:20:17;13.77;;;11.23;;
24090;SDS011;12272;52.426;17.100;2023-05-08T23:25:20;18.10;;;10.97;;
24090;SDS011;12272;52.426;17.100;2023-05-08T23:30:23;14.83;;;10.93;;
24090;SDS011;12272;52.426;17.100;2023-05-08T23:35:26;6.47;;;5.60;;
24090;SDS011;12272;52.426;17.100;2023-05-08T23:40:29;11.00;;;8.13;;
24090;SDS011;12272;52.426;17.100;2023-05-08T23:45:31;18.57;;;12.13;;
24090;SDS011;12272;52.426;17.100;2023-05-08T23:50:34;22.47;;;14.10;;
24090;SDS011;12272;52.426;17.100;2023-05-08T23:55:36;27.50;;;15.53;;
